createdAt,value
2023-04-28T00:06:22.060Z,5.30
2023-04-28T00:13:01.145Z,5.02
2023-04-28T00:20:00.833Z,4.88
2023-04-28T00:27:00.647Z,4.21
2023-04-28T00:29:52.958Z,4.69
2023-04-28T00:32:27.577Z,4.47
2023-04-28T00:34:55.871Z,4.46
2023-04-28T00:37:23.450Z,4.44
2023-04-28T00:39:55.307Z,4.67
2023-04-28T00:42:24.175Z,4.98
2023-04-28T00:44:51.961Z,5.00
2023-04-28T00:47:20.053Z,5.05
2023-04-28T00:49:49.590Z,4.81
2023-04-28T00:52:17.197Z,4.69
2023-04-28T00:54:44.774Z,4.78
2023-04-28T00:57:12.611Z,4.96
2023-04-28T00:59:41.613Z,5.27
2023-04-28T01:02:09.195Z,5.06
2023-04-28T01:04:36.943Z,5.10
2023-04-28T01:07:05.001Z,5.11
2023-04-28T01:09:33.279Z,5.15
2023-04-28T01:12:00.959Z,5.22
2023-04-28T01:14:42.036Z,5.28
2023-04-28T01:17:09.743Z,5.33
2023-04-28T01:19:37.876Z,5.11
2023-04-28T01:22:05.741Z,4.79
2023-04-28T01:24:34.592Z,5.01
2023-04-28T01:27:06.121Z,4.69
2023-04-28T01:29:33.621Z,4.66
2023-04-28T01:32:01.270Z,4.60
2023-04-28T01:34:28.833Z,4.76
2023-04-28T01:36:56.601Z,5.14
2023-04-28T01:39:24.451Z,5.24
2023-04-28T01:41:53.430Z,5.68
2023-04-28T01:44:20.960Z,5.44
2023-04-28T01:46:49.475Z,5.69
2023-04-28T01:49:16.984Z,5.51
2023-04-28T01:51:44.507Z,5.28
2023-04-28T01:54:12.419Z,5.66
2023-04-28T01:56:40.659Z,5.71
2023-04-28T01:59:09.503Z,5.72
2023-04-28T02:01:37.059Z,5.75
2023-04-28T02:04:04.707Z,5.85
2023-04-28T02:06:34.819Z,6.00
2023-04-28T02:09:02.377Z,5.97
2023-04-28T02:11:29.948Z,5.89
2023-04-28T02:13:58.093Z,6.06
2023-04-28T02:16:27.079Z,6.42
2023-04-28T02:18:54.670Z,6.45
2023-04-28T02:21:22.212Z,6.67
2023-04-28T02:23:50.490Z,6.72
2023-04-28T02:26:18.069Z,6.70
2023-04-28T02:28:45.838Z,6.74
2023-04-28T02:31:14.098Z,6.68
2023-04-28T02:33:43.321Z,6.79
2023-04-28T02:36:11.497Z,6.84
2023-04-28T02:38:39.022Z,6.82
2023-04-28T02:41:08.981Z,6.78
2023-04-28T02:43:37.219Z,6.95
2023-04-28T02:46:05.210Z,6.75
2023-04-28T02:48:33.463Z,6.56
2023-04-28T02:51:02.360Z,6.89
2023-04-28T02:53:29.987Z,6.66
2023-04-28T02:55:57.565Z,6.75
2023-04-28T02:58:25.350Z,6.56
2023-04-28T03:00:52.908Z,6.41
2023-04-28T03:03:20.606Z,6.29
2023-04-28T03:05:48.353Z,6.48
2023-04-28T03:08:19.050Z,6.48
2023-04-28T03:10:46.545Z,6.49
2023-04-28T03:13:14.123Z,6.60
2023-04-28T03:15:43.261Z,6.54
2023-04-28T03:18:10.935Z,6.57
2023-04-28T03:20:38.564Z,6.66
2023-04-28T03:23:06.272Z,6.90
2023-04-28T03:25:35.405Z,6.91
2023-04-28T03:28:03.566Z,6.91
2023-04-28T03:30:31.108Z,6.89
2023-04-28T03:32:58.888Z,6.77
2023-04-28T03:35:26.530Z,6.77
2023-04-28T03:37:54.147Z,6.94
2023-04-28T03:40:21.714Z,6.92
2023-04-28T03:43:05.142Z,6.94
2023-04-28T03:45:40.137Z,6.89
2023-04-28T03:48:07.980Z,6.90
2023-04-28T03:50:35.524Z,6.94
2023-04-28T03:53:03.151Z,7.03
2023-04-28T03:55:31.105Z,7.19
2023-04-28T03:57:58.817Z,7.24
2023-04-28T04:00:28.093Z,7.30
2023-04-28T04:02:56.740Z,7.53
2023-04-28T04:05:24.778Z,7.68
2023-04-28T04:07:52.403Z,7.64
2023-04-28T04:10:20.048Z,7.78
2023-04-28T04:12:49.804Z,7.85
2023-04-28T04:15:17.511Z,7.66
2023-04-28T04:17:48.424Z,7.69
2023-04-28T04:20:16.189Z,7.63
2023-04-28T04:22:45.398Z,7.57
2023-04-28T04:25:13.236Z,7.46
2023-04-28T04:27:41.509Z,7.55
2023-04-28T04:30:09.924Z,7.57
2023-04-28T04:32:38.269Z,7.58
2023-04-28T04:35:07.633Z,7.67
2023-04-28T04:37:35.209Z,7.72
2023-04-28T04:40:03.615Z,7.79
2023-04-28T04:42:36.935Z,7.72
2023-04-28T04:45:08.281Z,7.84
2023-04-28T04:47:36.673Z,7.92
2023-04-28T04:50:04.360Z,8.06
2023-04-28T04:52:33.458Z,8.17
2023-04-28T04:55:01.041Z,8.31
2023-04-28T04:57:29.447Z,8.38
2023-04-28T05:00:26.326Z,8.66
2023-04-28T05:02:54.943Z,8.45
2023-04-28T05:05:23.387Z,8.34
2023-04-28T05:08:15.608Z,8.42
2023-04-28T05:10:43.275Z,8.34
2023-04-28T05:13:11.847Z,8.32
2023-04-28T05:15:40.350Z,8.35
2023-04-28T05:18:43.224Z,8.46
2023-04-28T05:21:11.766Z,8.50
2023-04-28T05:23:40.691Z,8.50
2023-04-28T05:26:08.221Z,8.55
2023-04-28T05:28:36.325Z,8.60
2023-04-28T05:31:03.979Z,8.61
2023-04-28T05:33:33.194Z,8.83
2023-04-28T05:36:02.843Z,8.78
2023-04-28T05:38:31.912Z,8.88
2023-04-28T05:41:04.306Z,8.96
2023-04-28T05:43:31.976Z,9.05
2023-04-28T05:45:59.595Z,9.02
2023-04-28T05:48:27.223Z,9.20
2023-04-28T05:50:55.529Z,9.55
2023-04-28T05:53:24.950Z,9.69
2023-04-28T05:55:55.512Z,9.82
2023-04-28T05:58:24.569Z,10.00
2023-04-28T06:00:52.079Z,10.10
2023-04-28T06:03:20.739Z,10.11
2023-04-28T06:05:49.420Z,10.25
2023-04-28T06:08:17.536Z,10.19
2023-04-28T06:10:45.142Z,10.22
2023-04-28T06:13:14.479Z,10.21
2023-04-28T06:15:44.159Z,10.26
2023-04-28T06:18:11.793Z,10.42
2023-04-28T06:20:39.436Z,10.44
2023-04-28T06:23:07.376Z,10.40
2023-04-28T06:25:34.954Z,10.47
2023-04-28T06:28:02.744Z,10.83
2023-04-28T06:30:30.303Z,11.12
2023-04-28T06:32:59.306Z,10.98
2023-04-28T06:35:27.012Z,11.37
2023-04-28T06:37:55.329Z,11.36
2023-04-28T06:40:22.880Z,11.58
2023-04-28T06:42:56.820Z,11.79
2023-04-28T06:45:31.537Z,11.66
2023-04-28T06:48:00.749Z,11.81
2023-04-28T06:50:29.330Z,11.99
2023-04-28T06:52:57.344Z,11.84
2023-04-28T06:55:24.879Z,11.95
2023-04-28T06:57:52.397Z,12.02
2023-04-28T07:00:20.064Z,12.25
2023-04-28T07:02:48.290Z,12.14
2023-04-28T07:05:17.327Z,12.04
2023-04-28T07:07:45.026Z,12.17
2023-04-28T07:10:13.314Z,12.30
2023-04-28T07:12:41.834Z,12.36
2023-04-28T07:15:10.442Z,12.22
2023-04-28T07:17:38.224Z,12.07
2023-04-28T07:20:07.040Z,12.16
2023-04-28T07:22:35.934Z,12.11
2023-04-28T07:25:03.420Z,12.32
2023-04-28T07:27:30.969Z,12.35
2023-04-28T07:29:58.560Z,12.27
2023-04-28T07:32:26.131Z,12.21
2023-04-28T07:34:53.722Z,12.17
2023-04-28T07:37:21.272Z,12.20
2023-04-28T07:39:50.257Z,12.17
2023-04-28T07:42:19.075Z,12.20
2023-04-28T07:44:46.582Z,12.21
2023-04-28T07:47:14.238Z,12.53
2023-04-28T07:49:41.743Z,12.49
2023-04-28T07:52:09.843Z,12.43
2023-04-28T07:54:37.441Z,12.61
2023-04-28T07:57:07.002Z,12.48
2023-04-28T07:59:34.556Z,12.63
2023-04-28T08:02:02.148Z,12.64
2023-04-28T08:04:31.602Z,12.63
2023-04-28T08:07:02.653Z,12.45
2023-04-28T08:09:30.284Z,12.51
2023-04-28T08:11:58.979Z,12.71
2023-04-28T08:14:27.913Z,12.77
2023-04-28T08:16:55.477Z,12.68
2023-04-28T08:19:23.616Z,12.76
2023-04-28T08:21:51.122Z,12.75
2023-04-28T08:24:18.734Z,12.61
2023-04-28T08:26:46.345Z,12.59
2023-04-28T08:29:13.843Z,12.66
2023-04-28T08:31:42.749Z,12.79
2023-04-28T08:34:10.290Z,12.66
2023-04-28T08:36:37.984Z,13.09
2023-04-28T08:39:08.583Z,12.82
2023-04-28T08:41:36.167Z,12.89
2023-04-28T08:44:03.667Z,12.79
2023-04-28T08:46:31.263Z,12.76
2023-04-28T08:49:00.883Z,12.90
2023-04-28T08:51:29.727Z,13.05
2023-04-28T08:54:18.948Z,13.06
2023-04-28T08:56:46.028Z,12.88
2023-04-28T08:59:13.810Z,12.78
2023-04-28T09:01:41.390Z,12.75
2023-04-28T09:04:13.354Z,12.50
2023-04-28T09:06:41.831Z,12.35
2023-04-28T09:09:26.164Z,12.35
2023-04-28T09:11:55.490Z,12.14
2023-04-28T09:14:23.426Z,12.25
2023-04-28T09:16:51.761Z,12.46
2023-04-28T09:19:20.740Z,12.66
2023-04-28T09:21:49.386Z,12.34
2023-04-28T09:24:26.772Z,12.71
2023-04-28T09:26:55.590Z,12.59
2023-04-28T09:29:23.559Z,12.76
2023-04-28T09:31:51.219Z,12.64
2023-04-28T09:34:19.047Z,12.64
2023-04-28T09:36:48.059Z,12.49
2023-04-28T09:39:15.880Z,12.55
2023-04-28T09:41:43.905Z,12.69
2023-04-28T09:44:12.027Z,12.37
2023-04-28T09:46:39.594Z,12.48
2023-04-28T09:49:07.124Z,12.72
2023-04-28T09:51:37.855Z,12.42
2023-04-28T09:54:08.876Z,12.48
2023-04-28T09:56:40.851Z,12.70
2023-04-28T09:59:08.459Z,12.30
2023-04-28T10:01:38.633Z,11.63
2023-04-28T10:04:06.611Z,11.91
2023-04-28T10:06:34.942Z,11.94
2023-04-28T10:09:02.982Z,11.71
2023-04-28T10:11:33.883Z,12.01
2023-04-28T10:14:01.692Z,11.83
2023-04-28T10:16:31.047Z,12.16
2023-04-28T10:18:58.661Z,11.99
2023-04-28T10:21:28.627Z,12.13
2023-04-28T10:24:00.632Z,11.79
2023-04-28T10:26:31.589Z,11.61
2023-04-28T10:29:01.673Z,11.21
2023-04-28T10:31:29.976Z,11.25
2023-04-28T10:33:57.649Z,11.64
2023-04-28T10:36:50.847Z,11.41
2023-04-28T10:39:21.538Z,11.73
2023-04-28T10:41:49.445Z,11.16
2023-04-28T10:44:35.885Z,10.91
2023-04-28T10:47:04.900Z,11.08
2023-04-28T10:49:47.575Z,10.82
2023-04-28T10:52:29.986Z,11.03
2023-04-28T10:55:22.152Z,11.22
2023-04-28T10:57:53.412Z,11.23
2023-04-28T11:00:27.965Z,11.16
2023-04-28T11:02:59.375Z,10.83
2023-04-28T11:05:28.821Z,11.05
2023-04-28T11:08:33.484Z,10.92
2023-04-28T11:11:31.339Z,10.92
2023-04-28T11:14:13.967Z,10.71
2023-04-28T11:16:49.655Z,10.66
2023-04-28T11:19:18.547Z,10.77
2023-04-28T11:21:46.080Z,10.83
2023-04-28T11:24:13.772Z,10.84
2023-04-28T11:26:41.394Z,11.04
2023-04-28T11:29:09.212Z,11.09
2023-04-28T11:31:37.266Z,11.17
2023-04-28T11:34:05.670Z,11.23
2023-04-28T11:36:35.835Z,10.80
2023-04-28T11:39:05.050Z,10.89
2023-04-28T11:41:35.748Z,11.02
2023-04-28T11:44:10.369Z,11.26
2023-04-28T11:46:37.949Z,11.43
2023-04-28T11:49:05.788Z,11.27
2023-04-28T11:51:38.209Z,11.45
2023-04-28T11:54:07.274Z,11.53
2023-04-28T11:56:37.914Z,11.48
2023-04-28T11:59:06.243Z,11.43
2023-04-28T12:01:34.142Z,11.45
2023-04-28T12:04:01.940Z,11.66
2023-04-28T12:06:29.838Z,12.39
2023-04-28T12:09:04.263Z,12.69
2023-04-28T12:11:32.181Z,12.36
2023-04-28T12:14:06.242Z,12.42
2023-04-28T12:16:43.393Z,12.27
2023-04-28T12:19:11.326Z,12.39
2023-04-28T12:21:39.514Z,12.40
2023-04-28T12:24:17.959Z,12.48
2023-04-28T12:26:45.738Z,12.41
2023-04-28T12:29:28.148Z,12.25
2023-04-28T12:31:55.720Z,12.35
2023-04-28T12:34:23.532Z,12.33
2023-04-28T12:36:51.187Z,12.17
2023-04-28T12:39:20.135Z,12.33
2023-04-28T12:41:47.875Z,12.41
2023-04-28T12:44:16.129Z,12.55
2023-04-28T12:46:44.044Z,12.44
2023-04-28T12:49:11.621Z,12.32
2023-04-28T12:51:39.726Z,12.43
2023-04-28T12:54:07.576Z,12.45
2023-04-28T12:56:36.547Z,12.36
2023-04-28T12:59:04.160Z,12.54
2023-04-28T13:01:31.851Z,12.39
2023-04-28T13:03:59.564Z,12.42
2023-04-28T13:06:27.916Z,12.39
2023-04-28T13:08:55.588Z,12.54
2023-04-28T13:11:24.824Z,12.60
2023-04-28T13:13:57.142Z,12.73
2023-04-28T13:16:28.865Z,12.52
2023-04-28T13:18:57.774Z,12.69
2023-04-28T13:21:26.695Z,12.54
2023-04-28T13:23:56.045Z,12.64
2023-04-28T13:26:24.880Z,12.65
2023-04-28T13:28:55.909Z,12.90
2023-04-28T13:31:23.460Z,13.12
2023-04-28T13:33:51.578Z,12.74
2023-04-28T13:36:19.418Z,12.78
2023-04-28T13:38:48.979Z,12.71
2023-04-28T13:41:16.605Z,12.70
2023-04-28T13:43:48.162Z,12.64
2023-04-28T13:46:17.158Z,12.69
2023-04-28T13:48:44.922Z,12.58
2023-04-28T13:51:12.667Z,12.61
2023-04-28T13:53:40.261Z,12.62
2023-04-28T13:56:08.297Z,12.64
2023-04-28T13:58:35.921Z,12.67
2023-04-28T14:01:04.004Z,12.80
2023-04-28T14:03:33.128Z,12.72
2023-04-28T14:06:00.859Z,12.75
2023-04-28T14:08:29.197Z,12.88
2023-04-28T14:10:59.721Z,12.69
2023-04-28T14:13:27.533Z,12.82
2023-04-28T14:15:58.993Z,12.94
2023-04-28T14:18:27.291Z,12.78
2023-04-28T14:20:56.141Z,12.64
2023-04-28T14:23:23.750Z,12.81
2023-04-28T14:25:52.086Z,12.77
2023-04-28T14:28:22.125Z,12.71
2023-04-28T14:30:50.207Z,13.02
2023-04-28T14:33:17.873Z,12.84
2023-04-28T14:35:45.471Z,12.91
2023-04-28T14:38:17.547Z,13.00
2023-04-28T14:40:45.069Z,13.06
2023-04-28T14:43:14.019Z,13.21
2023-04-28T14:45:41.978Z,13.16
2023-04-28T14:48:10.587Z,12.93
2023-04-28T14:50:38.336Z,12.91
2023-04-28T14:53:07.722Z,12.83
2023-04-28T14:55:37.252Z,12.81
2023-04-28T14:58:04.948Z,12.84
2023-04-28T15:00:34.999Z,12.80
2023-04-28T15:03:02.631Z,12.81
2023-04-28T15:05:30.266Z,13.08
2023-04-28T15:07:58.191Z,13.30
2023-04-28T15:10:25.703Z,13.03
2023-04-28T15:12:54.720Z,13.23
2023-04-28T15:15:22.213Z,13.40
2023-04-28T15:17:50.005Z,13.25
2023-04-28T15:20:17.514Z,13.06
2023-04-28T15:22:45.663Z,12.93
2023-04-28T15:25:13.379Z,12.78
2023-04-28T15:27:40.936Z,12.49
2023-04-28T15:30:10.787Z,12.47
2023-04-28T15:32:38.474Z,12.50
2023-04-28T15:35:06.612Z,12.33
2023-04-28T15:38:00.317Z,12.34
2023-04-28T15:44:07.486Z,12.36
2023-04-28T15:46:39.503Z,12.31
2023-04-28T15:49:07.031Z,12.22
2023-04-28T15:51:34.702Z,12.12
2023-04-28T15:54:02.359Z,12.22
2023-04-28T15:56:31.064Z,12.18
2023-04-28T15:58:58.598Z,12.21
2023-04-28T16:01:26.319Z,12.35
2023-04-28T16:03:55.374Z,12.35
2023-04-28T16:06:23.021Z,12.38
2023-04-28T16:08:50.726Z,12.52
2023-04-28T16:11:21.524Z,12.55
2023-04-28T16:13:50.032Z,12.44
2023-04-28T16:16:17.819Z,12.73
2023-04-28T16:18:45.428Z,12.84
2023-04-28T16:21:17.348Z,12.75
2023-04-28T16:23:45.442Z,12.85
2023-04-28T16:26:13.447Z,12.84
2023-04-28T16:28:40.969Z,12.68
2023-04-28T16:31:10.874Z,12.80
2023-04-28T16:33:38.677Z,12.96
2023-04-28T16:36:06.704Z,12.78
2023-04-28T16:38:35.661Z,12.84
2023-04-28T16:41:03.157Z,12.93
2023-04-28T16:43:32.136Z,12.86
2023-04-28T16:45:59.746Z,12.70
2023-04-28T16:48:27.997Z,12.78
2023-04-28T16:50:58.772Z,12.72
2023-04-28T16:53:26.711Z,12.88
2023-04-28T16:55:55.544Z,13.04
2023-04-28T16:58:30.308Z,12.92
2023-04-28T17:00:57.859Z,12.79
2023-04-28T17:03:27.740Z,12.74
2023-04-28T17:05:55.447Z,12.63
2023-04-28T17:08:23.014Z,12.68
2023-04-28T17:10:50.516Z,12.41
2023-04-28T17:13:19.733Z,12.41
2023-04-28T17:15:47.228Z,12.34
2023-04-28T17:18:14.806Z,12.43
2023-04-28T17:20:42.462Z,12.21
2023-04-28T17:23:10.036Z,12.55
2023-04-28T17:25:38.534Z,12.76
2023-04-28T17:28:08.570Z,12.67
2023-04-28T17:30:38.266Z,12.76
2023-04-28T17:33:05.864Z,12.54
2023-04-28T17:35:34.088Z,12.51
2023-04-28T17:38:02.173Z,12.68
2023-04-28T17:40:29.685Z,12.60
2023-04-28T17:42:57.346Z,12.54
2023-04-28T17:45:24.842Z,12.56
2023-04-28T17:47:54.014Z,12.65
2023-04-28T17:50:22.049Z,12.71
2023-04-28T17:52:49.903Z,12.67
2023-04-28T17:55:17.563Z,12.52
2023-04-28T17:57:45.054Z,12.58
2023-04-28T18:00:13.254Z,12.65
2023-04-28T18:02:41.326Z,12.76
2023-04-28T18:05:10.628Z,12.50
2023-04-28T18:07:38.555Z,12.60
2023-04-28T18:10:06.366Z,12.58
2023-04-28T18:12:36.835Z,12.60
2023-04-28T18:15:04.408Z,12.50
2023-04-28T18:17:33.269Z,12.42
2023-04-28T18:20:00.810Z,12.29
2023-04-28T18:22:29.704Z,12.21
2023-04-28T18:25:00.237Z,12.11
2023-04-28T18:27:27.818Z,12.02
2023-04-28T18:29:55.999Z,11.94
2023-04-28T18:32:23.706Z,12.11
2023-04-28T18:34:51.546Z,12.16
2023-04-28T18:37:19.213Z,12.19
2023-04-28T18:39:48.053Z,12.09
2023-04-28T18:42:15.620Z,12.05
2023-04-28T18:44:43.383Z,12.23
2023-04-28T18:47:11.019Z,12.31
2023-04-28T18:49:39.501Z,12.22
2023-04-28T18:52:07.064Z,12.06
2023-04-28T18:54:35.375Z,12.14
2023-04-28T18:57:05.032Z,12.28
2023-04-28T18:59:32.864Z,11.73
2023-04-28T19:02:00.967Z,11.98
2023-04-28T19:04:31.935Z,12.04
2023-04-28T19:07:03.502Z,12.20
2023-04-28T19:09:31.821Z,11.85
2023-04-28T19:12:02.294Z,11.78
2023-04-28T19:14:31.586Z,12.08
2023-04-28T19:16:59.178Z,12.05
2023-04-28T19:19:26.712Z,12.06
2023-04-28T19:21:54.330Z,11.91
2023-04-28T19:24:23.703Z,11.87
2023-04-28T19:26:51.805Z,12.05
2023-04-28T19:29:20.040Z,11.83
2023-04-28T19:31:51.755Z,12.24
2023-04-28T19:34:19.257Z,11.93
2023-04-28T19:36:49.319Z,12.19
2023-04-28T19:39:17.437Z,12.27
2023-04-28T19:41:46.953Z,12.18
2023-04-28T19:44:14.761Z,12.09
2023-04-28T19:46:43.317Z,12.25
2023-04-28T19:49:13.650Z,11.94
2023-04-28T19:51:41.240Z,12.01
2023-04-28T19:54:08.718Z,12.08
2023-04-28T19:56:36.264Z,12.13
2023-04-28T19:59:03.895Z,11.95
2023-04-28T20:01:31.576Z,12.03
2023-04-28T20:04:00.506Z,12.12
2023-04-28T20:06:29.581Z,12.26
2023-04-28T20:08:57.081Z,12.27
2023-04-28T20:11:24.703Z,12.17
2023-04-28T20:13:52.465Z,12.15
2023-04-28T20:16:20.617Z,12.11
2023-04-28T20:18:50.499Z,11.94
2023-04-28T20:21:18.044Z,12.10
2023-04-28T20:23:50.756Z,12.00
2023-04-28T20:26:18.365Z,12.05
2023-04-28T20:28:46.485Z,12.05
2023-04-28T20:31:14.865Z,12.01
2023-04-28T20:33:45.415Z,12.14
2023-04-28T20:36:16.735Z,11.87
2023-04-28T20:38:44.372Z,11.91
2023-04-28T20:41:13.245Z,11.93
2023-04-28T20:43:41.140Z,12.18
2023-04-28T20:46:09.949Z,12.03
2023-04-28T20:48:37.567Z,11.98
2023-04-28T20:51:05.212Z,12.22
2023-04-28T20:53:33.140Z,12.16
2023-04-28T20:56:00.732Z,12.04
2023-04-28T20:58:30.909Z,12.07
2023-04-28T21:01:02.122Z,12.07
2023-04-28T21:03:30.780Z,11.74
2023-04-28T21:06:14.851Z,12.09
2023-04-28T21:08:45.585Z,11.97
2023-04-28T21:11:13.618Z,11.75
2023-04-28T21:13:43.004Z,11.52
2023-04-28T21:16:15.960Z,11.38
2023-04-28T21:18:45.207Z,11.23
2023-04-28T21:21:13.074Z,11.41
2023-04-28T21:23:40.607Z,11.52
2023-04-28T21:26:08.417Z,11.36
2023-04-28T21:28:36.284Z,11.13
2023-04-28T21:31:05.313Z,10.99
2023-04-28T21:33:32.825Z,11.04
2023-04-28T21:36:05.134Z,10.90
2023-04-28T21:38:33.314Z,11.08
2023-04-28T21:41:00.852Z,11.11
2023-04-28T21:43:28.375Z,10.97
2023-04-28T21:45:55.960Z,10.97
2023-04-28T21:48:24.848Z,10.92
2023-04-28T21:50:52.392Z,10.75
2023-04-28T21:53:20.527Z,10.67
2023-04-28T21:55:48.411Z,10.77
2023-04-28T21:58:16.550Z,10.57
2023-04-28T22:00:44.417Z,10.72
2023-04-28T22:03:13.872Z,10.78
2023-04-28T22:05:42.912Z,10.63
2023-04-28T22:08:10.572Z,10.83
2023-04-28T22:10:38.292Z,10.80
2023-04-28T22:13:06.170Z,10.86
2023-04-28T22:15:33.765Z,10.51
2023-04-28T22:18:01.553Z,10.30
2023-04-28T22:20:29.113Z,10.00
2023-04-28T22:22:58.641Z,10.40
2023-04-28T22:25:26.156Z,10.12
2023-04-28T22:27:53.680Z,10.03
2023-04-28T22:30:21.832Z,10.21
2023-04-28T22:32:50.612Z,10.48
2023-04-28T22:35:18.189Z,10.73
2023-04-28T22:37:45.702Z,11.14
2023-04-28T22:40:14.636Z,10.84
2023-04-28T22:42:43.565Z,10.91
2023-04-28T22:45:11.788Z,10.72
2023-04-28T22:47:40.065Z,10.75
2023-04-28T22:50:08.431Z,10.77
2023-04-28T22:52:36.022Z,10.74
2023-04-28T22:55:03.721Z,10.76
2023-04-28T22:57:32.599Z,10.93
2023-04-28T23:00:00.184Z,11.08
2023-04-28T23:02:27.913Z,11.32
2023-04-28T23:04:56.656Z,11.17
2023-04-28T23:07:24.282Z,11.19
2023-04-28T23:09:52.082Z,11.39
2023-04-28T23:12:19.880Z,11.35
2023-04-28T23:14:48.704Z,11.24
2023-04-28T23:17:16.387Z,11.16
2023-04-28T23:19:43.913Z,11.16
2023-04-28T23:22:11.407Z,11.04
2023-04-28T23:24:39.987Z,11.20
2023-04-28T23:27:07.830Z,11.13
2023-04-28T23:29:36.110Z,11.14
2023-04-28T23:32:05.183Z,11.07
2023-04-28T23:34:32.728Z,11.06
2023-04-28T23:37:00.249Z,11.14
2023-04-28T23:39:29.978Z,10.93
2023-04-28T23:41:58.666Z,11.09
2023-04-28T23:44:26.172Z,11.11
2023-04-28T23:46:55.909Z,11.14
2023-04-28T23:49:25.078Z,11.24
2023-04-28T23:51:52.900Z,11.19
2023-04-28T23:54:20.417Z,11.27
2023-04-28T23:56:48.026Z,11.22
2023-04-28T23:59:15.530Z,11.13
